Date,TemperatureHighF,TemperatureAvgF,TemperatureLowF,DewpointHighF,DewpointAvgF,DewpointLowF,HumidityHigh,HumidityAvg,HumidityLow,PressureMaxIn,PressureMinIn,WindSpeedMaxMPH,WindSpeedAvgMPH,GustSpeedMaxMPH,PrecipitationSumIn
2013-1-1,50,46,41,49,41,29,97,86,54,30.24,30.06,4,0,8,0.24
2013-1-2,49,45,39,48,42,38,98,90,70,30.30,30.03,2,0,8,0.20
2013-1-3,45,38,26,38,35,25,96,88,69,30.40,30.25,2,0,4,0.00
2013-1-4,50,35,23,31,25,21,97,70,38,30.47,30.33,6,2,11,0.00
2013-1-5,48,36,25,33,26,21,88,68,39,30.53,30.38,3,1,8,0.00
2013-1-6,50,42,32,40,36,31,97,82,64,30.38,30.17,3,0,5,0.01
2013-1-7,52,37,27,34,30,26,95,77,45,30.56,30.31,3,1,9,0.00
2013-1-8,57,41,25,45,36,24,97,82,56,30.60,30.49,2,0,6,0.00
2013-1-9,67,52,36,55,46,35,97,82,54,30.58,30.48,3,0,7,0.00
2013-1-10,63,52,43,49,44,36,98,79,39,30.64,30.53,4,0,9,0.00
2013-1-11,51,46,42,48,44,38,98,93,63,30.53,30.28,2,0,5,0.14
2013-1-12,70,57,48,64,55,48,99,94,78,30.29,30.21,5,1,8,0.00
2013-1-13,73,58,46,62,54,45,99,89,66,30.25,30.16,5,1,11,0.00
2013-1-14,68,60,55,64,59,54,98,95,85,30.25,30.18,3,0,6,0.01
2013-1-15,61,48,44,60,47,44,99,97,92,30.28,30.17,2,1,8,0.04
2013-1-16,49,45,41,49,44,41,99,98,97,30.19,30.10,3,0,6,0.17
2013-1-17,50,46,33,50,45,32,99,97,93,30.28,29.96,4,1,18,1.19
2013-1-18,44,34,25,33,28,24,98,82,47,30.67,30.26,4,1,13,0.17
2013-1-19,54,35,22,32,27,21,98,77,30,30.64,30.30,3,1,9,0.01
2013-1-20,63,44,31,37,33,30,96,70,33,30.30,30.12,7,2,12,0.00
2013-1-21,59,41,26,35,28,21,98,66,31,30.22,30.00,6,1,14,0.00
2013-1-22,39,32,24,23,9,-1,69,40,20,30.41,30.09,7,2,14,0.00
2013-1-23,41,26,16,19,13,5,85,59,32,30.51,30.19,5,1,10,0.00
2013-1-24,39,30,22,28,14,3,87,54,30,30.64,30.11,7,1,20,0.00
2013-1-25,26,22,16,24,16,6,94,79,46,30.66,30.26,2,0,5,0.00
2013-1-26,43,30,23,33,27,21,96,90,61,30.53,30.23,3,0,6,0.12
2013-1-27,40,30,20,30,26,19,97,84,63,30.74,30.53,3,0,9,0.03
2013-1-28,50,42,31,47,36,28,93,81,64,30.65,30.36,3,1,8,0.05
2013-1-29,72,54,38,58,50,38,98,87,61,30.37,30.18,7,1,13,0.00
2013-1-30,74,66,52,64,61,51,98,85,67,30.17,29.51,11,3,23,0.42
2013-1-31,58,44,28,54,30,18,92,61,31,30.14,29.59,12,6,24,0.10
2013-2-1,41,33,23,29,15,2,88,50,24,30.51,30.02,10,3,21,0.00
2013-2-2,44,31,15,36,16,8,90,58,26,30.54,30.16,8,1,13,0.00
2013-2-3,50,39,29,36,29,23,98,69,41,30.16,29.97,8,2,14,0.00
2013-2-4,48,35,23,30,24,20,92,68,37,30.28,30.12,4,0,10,0.00
2013-2-5,61,43,31,37,32,28,91,70,36,30.14,30.00,8,1,16,0.00
2013-2-6,63,42,28,36,29,20,97,66,20,30.39,30.09,5,1,12,0.00
2013-2-7,45,40,30,41,36,26,96,86,73,30.44,30.11,2,1,9,0.39
2013-2-8,56,44,37,46,39,28,96,82,48,30.19,29.95,7,3,15,0.37
2013-2-9,54,38,25,29,24,16,88,61,23,30.49,30.18,6,2,13,0.00
2013-2-10,53,38,23,40,26,20,93,67,28,30.62,30.33,3,0,9,0.06
2013-2-11,62,55,42,59,53,40,98,94,88,30.33,30.04,4,2,16,0.08
2013-2-12,59,50,45,53,37,25,98,64,27,30.20,30.02,5,1,14,0.00
2013-2-13,48,45,38,46,42,34,97,92,73,30.07,29.75,7,1,10,0.04
2013-2-14,51,39,29,36,32,28,97,78,45,30.20,29.96,3,0,10,0.01
2013-2-15,62,43,28,40,32,27,98,71,29,30.22,30.05,4,1,9,0.00
2013-2-16,44,34,27,36,32,23,96,89,72,30.09,29.96,5,1,13,0.24
2013-2-17,39,27,19,23,16,9,91,66,30,30.42,30.07,10,3,26,0.00
2013-2-18,52,32,14,28,20,13,94,67,28,30.54,30.38,3,0,9,0.02
2013-2-19,49,37,26,47,35,24,98,92,85,30.38,29.99,6,1,12,0.17
2013-2-20,52,38,24,36,22,14,98,58,22,30.26,30.10,7,2,12,0.00
2013-2-21,56,38,22,30,21,14,87,54,21,30.37,30.24,4,0,8,0.00
2013-2-22,43,36,33,35,33,28,97,92,55,30.46,30.24,2,0,5,0.46
2013-2-23,43,39,35,42,38,34,98,97,96,30.24,29.95,2,0,6,0.74
2013-2-24,62,47,34,46,39,30,98,78,31,30.15,29.93,6,2,12,0.04
2013-2-25,42,36,30,30,26,22,89,69,49,30.35,30.16,3,1,7,0.00
2013-2-26,57,43,34,56,41,26,98,90,65,30.26,29.67,5,2,16,0.79
2013-2-27,58,46,36,43,39,35,98,79,51,29.91,29.75,6,2,13,0.00
2013-2-28,49,40,30,39,30,26,98,72,42,29.98,29.82,9,2,16,0.00
2013-3-1,46,38,25,33,29,24,96,71,48,30.05,29.97,6,2,11,0.00
2013-3-2,46,36,27,31,27,19,94,70,47,30.06,29.93,5,1,14,0.00
2013-3-3,45,35,26,23,20,18,78,56,40,30.11,29.98,7,2,14,0.00
2013-3-4,51,34,18,25,18,14,89,57,24,30.25,30.11,8,2,17,0.00
2013-3-5,45,40,31,44,36,25,97,85,56,30.20,29.68,2,0,6,0.20
2013-3-6,47,42,36,46,31,25,98,67,46,30.17,29.65,13,6,28,0.03
2013-3-7,54,42,31,32,29,25,83,61,41,30.37,30.17,6,3,15,0.00
2013-3-8,56,43,29,28,25,23,81,53,30,30.43,30.29,7,2,20,0.00
2013-3-9,64,44,32,37,30,26,90,62,30,30.47,30.35,4,1,13,0.00
2013-3-10,68,46,28,38,31,27,96,63,23,30.44,30.31,4,1,7,0.00
2013-3-11,67,51,33,53,42,27,89,72,56,30.36,30.02,4,1,14,0.00
2013-3-12,68,60,47,62,52,31,97,76,41,30.06,29.87,7,3,16,0.68
2013-3-13,56,44,29,34,27,19,96,56,28,30.26,30.06,10,3,19,0.00
2013-3-14,52,38,27,26,20,16,76,49,25,30.38,30.25,8,3,15,0.00
2013-3-15,61,46,24,37,29,20,89,56,33,30.32,30.02,7,2,14,0.00
2013-3-16,77,59,41,49,44,36,91,62,34,30.02,29.78,8,2,17,0.00
2013-3-17,61,50,42,52,45,38,95,83,61,30.26,29.95,4,1,14,0.00
2013-3-18,42,40,38,41,39,37,98,95,88,30.30,29.96,4,1,8,0.61
2013-3-19,65,50,40,46,34,16,98,64,17,30.14,29.95,10,3,20,0.00
2013-3-20,55,45,33,29,18,6,81,37,19,30.23,29.91,6,1,14,0.00
2013-3-21,45,39,33,32,19,10,87,47,28,30.08,29.86,10,3,20,0.00